03:42
Airports
Links
Donate
Help keep this website running!
PayPal
Bitcoin
METAR
YBRK 130330Z 08009KT 030V090 9999 FEW045 31/18 Q1011 RF00.0/000.0
Current Weather Conditions at YBRK
VFR 03:30:00 13-12-17
Altimeter:29.85 hg
Temp:31.0°c 88°f
Dew point:18.0°c 64°f
Wind:9 knots, 10.4 mph, 5 m/s, from 80°
Visibility:6.21 statute miles
4500(FEW) A few
Past METAR reports
VFR 03:00:00 13-12-17
Altimeter:29.85 hg
Temp:31.0°c 88°f
Dew point:17.0°c 63°f
Wind:11 knots, 12.7 mph, 6 m/s, from 100°
Visibility:6.21 statute miles
4500(SCT) Scattered
YBRK 130300Z 10011KT 9999 SCT045 31/17 Q1011
VFR 02:30:00 13-12-17
Altimeter:29.85 hg
Temp:31.0°c 88°f
Dew point:17.0°c 63°f
Wind:11 knots, 12.7 mph, 6 m/s, from 90°
Visibility:6.21 statute miles
4000(FEW) A few
YBRK 130230Z 09011KT 9999 FEW040 31/17 Q1011
VFR 02:00:00 13-12-17
Altimeter:29.88 hg
Temp:31.0°c 88°f
Dew point:17.0°c 63°f
Wind:8 knots, 9.2 mph, 4 m/s, from 100°
Visibility:6.21 statute miles
4000(SCT) Scattered
YBRK 130200Z 10008KT 040V130 9999 SCT040 31/17 Q1012 RF00.0/000.0
VFR 01:30:00 13-12-17
Altimeter:29.88 hg
Temp:30.0°c 86°f
Dew point:16.0°c 61°f
Wind:9 knots, 10.4 mph, 5 m/s, from 120°
Visibility:6.21 statute miles
4000(SCT) Scattered
YBRK 130130Z 12009KT 100V160 9999 SCT040 30/16 Q1012 RF00.0/000.0
VFR 01:00:00 13-12-17
Altimeter:29.91 hg
Temp:29.0°c 84°f
Dew point:16.0°c 61°f
Wind:8 knots, 9.2 mph, 4 m/s, from 110°
Visibility:6.21 statute miles
4000(SCT) Scattered
YBRK 130100Z 11008KT 9999 SCT040 29/16 Q1013
VFR 00:30:00 13-12-17
Altimeter:29.91 hg
Temp:29.0°c 84°f
Dew point:16.0°c 61°f
Wind:8 knots, 9.2 mph, 4 m/s, from 130°
Visibility:6.21 statute miles
3500(SCT) Scattered
YBRK 130030Z 13008KT 090V160 9999 SCT035 29/16 Q1013 RF00.0/000.0
TAF
TAF YBRK 122312Z 1300/1324 13008KT 9999 FEW025 FM130300 07010KT 9999 FEW045 FM130900 11006KT 9999 FEW025 FM131500 15006KT 9999 SCT020 FM132300 11008KT 9999 FEW030
Forecast at YBRK
00:00 13-12-17 to 03:00 13-12-17
Wind:8 Knots from 130°
Visibility:6.21 statute miles
2500FEW A few
FM 03:00 13-12-17 to 09:00 13-12-17
Wind:10 Knots from 70°
Visibility:6.21 statute miles
4500FEW A few
FM 09:00 13-12-17 to 15:00 13-12-17
Wind:6 Knots from 110°
Visibility:6.21 statute miles
2500FEW A few
FM 15:00 13-12-17 to 23:00 13-12-17
Wind:6 Knots from 150°
Visibility:6.21 statute miles
2000SCT Scattered
FM 23:00 13-12-17 to 00:00 14-12-17
Wind:8 Knots from 110°
Visibility:6.21 statute miles
3000FEW A few